Time;durP1;ratioP1;P1;durP2;ratioP2;P2;SDS_P1;SDS_P2;PMS_P1;PMS_P2;Temp;Humidity;BMP_temperature;BMP_pressure;BME280_temperature;BME280_humidity;BME280_pressure;Samples;Min_cycle;Max_cycle;Signal;HPM_P1;HPM_P2
2022/06/18 00:01:35;;;;;;;13.57;8.82;;;;;;;20.76;51.52;101461.63;5017200;28;20392;-86
2022/06/18 00:04:03;;;;;;;12.30;8.60;;;;;;;20.79;51.56;101464.00;4998530;28;20435;-86
2022/06/18 00:06:28;;;;;;;12.50;9.20;;;;;;;20.71;51.61;101466.38;5014709;28;20498;-87
2022/06/18 00:08:54;;;;;;;13.23;8.98;;;;;;;20.77;51.71;101467.72;5014757;28;20034;-86
2022/06/18 00:14:03;;;;;;;17.52;9.98;;;;;;;20.69;52.10;101470.94;5017391;28;20530;-87
2022/06/18 00:16:31;;;;;;;15.40;9.65;;;;;;;20.59;52.34;101469.97;4998048;28;20025;-87
2022/06/18 00:18:57;;;;;;;15.93;9.75;;;;;;;20.55;52.42;101464.13;5015221;28;20436;-87
2022/06/18 00:21:23;;;;;;;15.02;10.07;;;;;;;20.55;52.81;101468.53;5014265;28;20072;-86
2022/06/18 00:23:48;;;;;;;18.95;10.43;;;;;;;20.43;53.21;101456.34;5014417;28;20036;-86
2022/06/18 00:26:15;;;;;;;16.52;10.32;;;;;;;20.46;53.37;101464.00;5014142;28;20034;-86
2022/06/18 00:28:40;;;;;;;18.85;10.88;;;;;;;20.45;53.48;101465.81;5030937;28;20057;-86
2022/06/18 00:31:06;;;;;;;19.45;12.00;;;;;;;20.34;53.51;101468.34;5014484;28;20483;-86
2022/06/18 00:33:31;;;;;;;20.90;11.73;;;;;;;20.21;54.11;101470.25;5014628;28;20025;-85
2022/06/18 00:35:59;;;;;;;21.45;12.05;;;;;;;20.23;54.18;101463.09;5013982;28;20037;-87
2022/06/18 00:38:30;;;;;;;19.80;11.90;;;;;;;20.07;55.04;101458.19;5014098;28;20033;-86
2022/06/18 00:40:56;;;;;;;23.80;12.50;;;;;;;19.95;55.33;101470.44;4997930;28;20029;-86
2022/06/18 00:43:27;;;;;;;24.05;12.00;;;;;;;19.85;55.91;101464.19;5014235;28;20033;-85
2022/06/18 00:45:55;;;;;;;21.33;12.85;;;;;;;19.76;56.36;101460.50;5030273;28;20033;-85
2022/06/18 00:48:37;;;;;;;21.30;12.27;;;;;;;19.71;56.52;101457.34;5016634;28;20046;-86
2022/06/18 00:51:24;;;;;;;22.30;12.55;;;;;;;19.81;56.52;101465.38;5015459;28;20040;-87
2022/06/18 00:54:02;;;;;;;17.30;11.65;;;;;;;19.67;56.63;101455.91;5031851;28;20032;-86
2022/06/18 00:56:40;;;;;;;21.60;12.13;;;;;;;19.66;56.73;101448.13;5014410;28;20029;-86
2022/06/18 00:59:26;;;;;;;19.00;11.65;;;;;;;19.67;56.81;101465.59;5014474;28;20064;-88
2022/06/18 01:01:52;;;;;;;18.77;11.50;;;;;;;19.60;57.38;101459.94;5015373;28;20037;-87
2022/06/18 01:04:26;;;;;;;21.58;12.40;;;;;;;19.56;57.29;101468.13;4997108;28;20041;-86
2022/06/18 01:07:03;;;;;;;19.10;11.77;;;;;;;19.53;57.19;101463.91;4997494;28;20041;-87
2022/06/18 01:09:29;;;;;;;19.80;11.38;;;;;;;19.55;56.99;101459.38;5014126;28;20033;-86
2022/06/18 01:11:54;;;;;;;19.10;11.80;;;;;;;19.47;56.83;101451.25;5013766;28;20120;-87
2022/06/18 01:14:20;;;;;;;24.23;11.65;;;;;;;19.61;56.79;101472.09;5013535;28;20056;-86
2022/06/18 01:16:45;;;;;;;18.50;10.98;;;;;;;19.53;56.50;101458.66;5013136;28;20426;-86
2022/06/18 01:19:24;;;;;;;20.52;11.90;;;;;;;19.62;56.76;101468.53;5013080;28;20052;-86
2022/06/18 01:21:58;;;;;;;21.98;11.35;;;;;;;19.56;56.81;101461.09;5014331;28;20124;-86
2022/06/18 01:24:30;;;;;;;18.63;11.15;;;;;;;19.48;57.12;101450.31;5030234;28;20603;-87
2022/06/18 01:26:56;;;;;;;17.85;10.07;;;;;;;19.57;57.13;101467.22;5014076;28;20018;-87
2022/06/18 01:29:21;;;;;;;22.88;11.77;;;;;;;19.39;57.22;101454.44;5029876;28;20029;-86
2022/06/18 01:31:47;;;;;;;21.40;11.90;;;;;;;19.33;57.61;101448.78;5029768;28;20029;-86
2022/06/18 01:34:13;;;;;;;15.95;11.00;;;;;;;19.30;57.71;101449.03;5013029;28;20037;-87
2022/06/18 01:36:39;;;;;;;17.17;10.85;;;;;;;19.26;57.96;101450.19;5013324;28;20029;-86
2022/06/18 01:39:06;;;;;;;17.52;11.10;;;;;;;19.43;57.76;101462.91;5013336;28;20033;-86
2022/06/18 01:41:52;;;;;;;21.88;12.02;;;;;;;19.41;57.67;101456.94;4997013;28;20478;-86
2022/06/18 01:44:29;;;;;;;19.15;11.10;;;;;;;19.39;57.83;101467.56;5015565;28;20474;-87
2022/06/18 01:46:58;;;;;;;15.10;10.27;;;;;;;18.99;58.05;101425.00;5029526;28;20522;-85
2022/06/18 01:49:26;;;;;;;18.17;11.05;;;;;;;19.17;58.32;101468.28;5029333;28;20065;-87
2022/06/18 01:51:51;;;;;;;16.88;10.77;;;;;;;19.14;58.78;101473.72;5013410;28;20079;-87
2022/06/18 01:54:20;;;;;;;19.95;11.32;;;;;;;19.03;58.34;101462.31;5013193;28;20037;-86
2022/06/18 01:56:49;;;;;;;21.60;11.55;;;;;;;19.16;58.47;101481.47;5013014;28;20065;-86
2022/06/18 01:59:17;;;;;;;18.73;11.48;;;;;;;19.15;58.29;101482.44;5013124;28;20033;-86
2022/06/18 02:01:43;;;;;;;23.60;11.68;;;;;;;19.18;58.07;101479.59;5012861;28;20450;-86
2022/06/18 02:04:09;;;;;;;21.45;12.38;;;;;;;19.23;58.19;101482.72;5012972;28;20021;-87
2022/06/18 02:06:36;;;;;;;25.17;11.68;;;;;;;19.07;58.21;101455.91;5013309;28;20037;-87
2022/06/18 02:09:03;;;;;;;20.77;11.82;;;;;;;19.27;57.74;101484.19;5029174;28;20159;-86
2022/06/18 02:11:28;;;;;;;19.20;11.35;;;;;;;19.29;57.64;101476.22;5013020;28;20505;-87
2022/06/18 02:13:57;;;;;;;19.77;11.98;;;;;;;19.31;57.60;101482.19;5013046;28;20029;-86
2022/06/18 02:16:25;;;;;;;21.10;11.75;;;;;;;19.37;57.34;101484.34;5013121;28;20112;-86
2022/06/18 02:18:51;;;;;;;19.60;11.65;;;;;;;19.43;57.15;101482.13;5012621;28;20036;-87
2022/06/18 02:21:17;;;;;;;22.40;11.65;;;;;;;19.42;56.82;101482.25;5012920;28;20038;-86
2022/06/18 02:23:42;;;;;;;19.15;11.55;;;;;;;19.37;57.09;101482.59;5012915;28;20037;-86
2022/06/18 02:26:08;;;;;;;21.73;11.10;;;;;;;19.44;56.54;101475.09;5012760;28;20026;-87
2022/06/18 02:28:41;;;;;;;20.77;11.60;;;;;;;19.47;56.58;101496.72;5015401;28;20025;-86
2022/06/18 02:31:07;;;;;;;20.35;11.63;;;;;;;19.41;56.70;101493.69;5017231;28;20025;-86
2022/06/18 02:33:36;;;;;;;21.40;11.57;;;;;;;19.32;57.07;101470.72;5000037;28;20029;-86
2022/06/18 02:36:23;;;;;;;20.15;11.75;;;;;;;19.46;57.20;101495.00;5034036;28;20033;-86
2022/06/18 02:38:48;;;;;;;19.25;11.48;;;;;;;19.52;56.58;101503.41;5033241;28;20143;-87
2022/06/18 02:41:14;;;;;;;23.75;11.73;;;;;;;19.34;56.68;101479.31;5016309;28;20504;-87
2022/06/18 02:43:40;;;;;;;19.23;11.30;;;;;;;19.25;56.85;101474.75;4999942;28;20021;-86
2022/06/18 02:46:06;;;;;;;18.08;11.38;;;;;;;19.48;56.48;101503.63;5032220;28;20465;-86
2022/06/18 02:48:32;;;;;;;18.98;11.23;;;;;;;19.46;56.65;101489.75;5003952;28;20045;-88
2022/06/18 02:50:58;;;;;;;22.15;11.55;;;;;;;19.53;56.94;101498.03;5033009;28;20088;-86
2022/06/18 02:53:24;;;;;;;19.13;12.00;;;;;;;19.59;56.95;101495.00;5016323;28;20064;-86
2022/06/18 02:55:52;;;;;;;19.70;11.85;;;;;;;19.60;56.79;101501.94;5015919;28;20506;-86
2022/06/18 02:58:22;;;;;;;22.65;11.55;;;;;;;19.68;56.35;101504.00;5016267;28;20037;-86
2022/06/18 03:00:59;;;;;;;20.08;11.48;;;;;;;19.66;56.28;101505.88;5032139;28;20053;-86
2022/06/18 03:03:29;;;;;;;20.98;11.07;;;;;;;19.63;56.42;101506.94;5017375;28;20033;-85
2022/06/18 03:05:55;;;;;;;22.85;11.75;;;;;;;19.71;56.47;101517.72;5015868;28;20033;-87
2022/06/18 03:08:21;;;;;;;23.50;11.57;;;;;;;19.67;56.50;101510.22;5015813;28;20064;-87
2022/06/18 03:13:30;;;;;;;20.90;11.60;;;;;;;19.73;56.50;101538.63;5018330;28;20103;-85
2022/06/18 03:15:56;;;;;;;18.13;11.00;;;;;;;19.81;56.45;101535.44;5015338;28;20061;-86
2022/06/18 03:18:27;;;;;;;22.70;11.63;;;;;;;19.80;56.61;101533.75;5015752;28;20026;-87
2022/06/18 03:21:02;;;;;;;22.55;11.43;;;;;;;19.73;56.51;101542.06;5016179;28;20037;-86
2022/06/18 03:23:28;;;;;;;17.70;11.20;;;;;;;19.76;56.49;101554.13;5032040;28;20534;-86
2022/06/18 03:25:54;;;;;;;21.65;11.60;;;;;;;19.69;56.87;101545.88;4999195;28;20072;-86
2022/06/18 03:28:20;;;;;;;26.80;12.70;;;;;;;19.70;57.30;101544.09;5015633;28;20483;-86
2022/06/18 03:30:45;;;;;;;18.55;11.95;;;;;;;19.54;57.42;101541.69;5015461;28;20045;-87
2022/06/18 03:33:12;;;;;;;23.65;11.68;;;;;;;19.69;57.16;101547.69;5032000;28;20056;-86
2022/06/18 03:35:38;;;;;;;18.85;12.32;;;;;;;19.63;57.39;101559.44;5031822;28;20037;-86
2022/06/18 03:38:04;;;;;;;19.83;11.88;;;;;;;19.61;57.75;101553.47;4998639;28;20036;-86
2022/06/18 03:40:29;;;;;;;25.67;12.45;;;;;;;19.43;57.64;101531.97;5015236;28;20030;-86
2022/06/18 03:42:55;;;;;;;23.20;12.45;;;;;;;19.58;57.08;101552.88;5031446;28;20055;-85
2022/06/18 03:45:20;;;;;;;20.92;12.10;;;;;;;19.62;57.40;101549.91;5015034;28;20029;-86
2022/06/18 03:47:47;;;;;;;25.02;12.10;;;;;;;19.69;56.92;101564.25;5001438;28;20095;-87
2022/06/18 03:50:19;;;;;;;21.55;12.23;;;;;;;19.77;57.62;101566.34;5038336;28;20440;-87
2022/06/18 03:52:45;;;;;;;24.10;12.05;;;;;;;19.82;57.30;101558.13;5038175;28;20401;-86
2022/06/18 03:55:14;;;;;;;21.55;12.60;;;;;;;19.93;56.54;101560.78;5038100;28;20036;-86
2022/06/18 03:57:40;;;;;;;21.17;12.43;;;;;;;19.96;57.29;101561.41;5038101;28;20036;-85
2022/06/18 04:00:07;;;;;;;20.98;12.40;;;;;;;19.90;56.35;101535.59;5021042;28;20464;-86
2022/06/18 04:02:32;;;;;;;21.25;12.55;;;;;;;20.08;56.79;101553.59;5021490;28;20497;-86
2022/06/18 04:04:57;;;;;;;21.52;13.43;;;;;;;20.15;56.62;101555.63;5037736;28;20029;-87
2022/06/18 04:07:23;;;;;;;24.55;13.02;;;;;;;20.22;56.33;101548.13;5038034;28;20024;-86
2022/06/18 04:09:50;;;;;;;19.98;13.32;;;;;;;20.24;55.36;101554.09;5021333;28;20048;-86
2022/06/18 04:12:17;;;;;;;21.95;13.68;;;;;;;20.16;55.73;101552.06;5054632;28;20039;-86
2022/06/18 04:14:43;;;;;;;19.65;13.77;;;;;;;20.27;55.79;101554.72;5037355;28;20032;-86
2022/06/18 04:17:13;;;;;;;22.17;13.23;;;;;;;20.40;55.31;101543.28;5037540;28;20052;-86
2022/06/18 04:19:38;;;;;;;21.65;12.40;;;;;;;20.52;55.35;101563.41;5037788;28;20028;-86
2022/06/18 04:22:03;;;;;;;18.98;13.20;;;;;;;20.65;54.70;101564.16;5021151;28;20037;-86
2022/06/18 04:24:29;;;;;;;21.77;13.27;;;;;;;20.63;54.71;101547.66;5037408;28;20031;-87
2022/06/18 04:26:54;;;;;;;21.27;12.75;;;;;;;20.84;54.76;101560.94;5037818;28;20028;-86
2022/06/18 04:29:21;;;;;;;22.95;13.52;;;;;;;20.91;54.18;101575.28;5053751;28;20028;-86
2022/06/18 04:31:46;;;;;;;20.13;12.95;;;;;;;20.95;53.71;101557.50;5053835;28;20535;-86
2022/06/18 04:34:12;;;;;;;20.95;12.77;;;;;;;21.03;53.86;101565.59;5037336;28;20024;-86
2022/06/18 04:36:39;;;;;;;21.20;12.77;;;;;;;21.08;53.51;101572.19;5053700;28;20536;-86
2022/06/18 04:39:04;;;;;;;19.00;12.43;;;;;;;21.03;52.98;101560.34;5020787;28;20128;-86
2022/06/18 04:41:30;;;;;;;20.17;12.13;;;;;;;21.06;53.23;101568.84;5037062;28;20028;-87
2022/06/18 04:43:56;;;;;;;18.48;12.63;;;;;;;21.29;53.63;101577.59;5053397;28;20047;-88
2022/06/18 04:46:21;;;;;;;24.92;13.00;;;;;;;21.43;53.24;101576.47;5020932;28;20071;-87
2022/06/18 04:48:47;;;;;;;20.48;13.60;;;;;;;21.43;53.88;101565.94;5053408;28;20044;-86
2022/06/18 04:51:13;;;;;;;21.33;13.95;;;;;;;21.54;53.26;101580.91;5071192;28;20025;-86
2022/06/18 04:53:38;;;;;;;24.05;14.23;;;;;;;21.62;53.62;101579.31;5037380;28;20032;-87
2022/06/18 04:56:04;;;;;;;21.25;13.48;;;;;;;21.68;53.74;101580.63;5036629;28;20032;-86
2022/06/18 04:58:30;;;;;;;18.02;13.68;;;;;;;21.58;53.32;101579.69;5053138;28;20098;-87
2022/06/18 05:00:55;;;;;;;24.50;14.57;;;;;;;21.55;53.47;101590.47;5053210;28;20033;-87
2022/06/18 05:03:21;;;;;;;24.88;15.00;;;;;;;21.54;53.61;101583.53;5036901;28;20035;-86
2022/06/18 05:05:46;;;;;;;24.08;14.98;;;;;;;21.52;53.79;101595.97;5053395;28;20021;-87
2022/06/18 05:08:12;;;;;;;24.35;15.25;;;;;;;21.32;54.71;101576.50;5036666;28;20059;-87
2022/06/18 05:10:38;;;;;;;21.30;14.82;;;;;;;21.55;54.71;101579.94;5020249;28;20032;-87
2022/06/18 05:13:05;;;;;;;31.42;16.10;;;;;;;21.68;54.70;101601.69;5019919;28;20473;-86
2022/06/18 05:15:31;;;;;;;22.27;14.52;;;;;;;21.72;54.44;101597.84;5037264;28;20043;-86
2022/06/18 05:17:56;;;;;;;24.48;15.23;;;;;;;21.67;54.88;101587.69;5036984;28;20115;-86
2022/06/18 05:20:23;;;;;;;23.75;14.68;;;;;;;21.88;55.03;101614.09;5020073;28;20024;-86
2022/06/18 05:22:49;;;;;;;24.98;15.35;;;;;;;21.85;55.25;101622.25;5036786;28;20033;-86
2022/06/18 05:25:14;;;;;;;23.42;16.38;;;;;;;21.91;55.05;101611.19;5052536;28;20082;-86
2022/06/18 05:27:40;;;;;;;28.80;17.60;;;;;;;21.91;55.61;101629.63;5020045;28;20498;-87
2022/06/18 05:30:07;;;;;;;26.02;17.10;;;;;;;21.80;55.53;101611.22;5036226;28;20024;-86
2022/06/18 05:32:33;;;;;;;27.63;17.30;;;;;;;21.91;55.06;101619.09;5019953;28;20032;-87
2022/06/18 05:34:58;;;;;;;28.77;17.77;;;;;;;22.01;55.42;101632.38;5036288;28;20029;-87
2022/06/18 05:37:25;;;;;;;26.77;17.58;;;;;;;22.03;55.66;101625.19;5019844;28;20032;-87
2022/06/18 05:39:50;;;;;;;27.25;17.52;;;;;;;22.04;55.53;101627.69;5036139;28;20549;-86
2022/06/18 05:42:16;;;;;;;36.97;18.92;;;;;;;22.05;54.89;101616.19;5019743;28;20066;-86
2022/06/18 05:44:42;;;;;;;37.30;18.95;;;;;;;22.12;55.39;101634.16;5036320;28;20103;-86
2022/06/18 05:47:23;;;;;;;28.25;18.38;;;;;;;22.11;55.32;101630.69;5052543;28;20489;-87
2022/06/18 05:49:50;;;;;;;27.23;19.47;;;;;;;22.23;55.50;101639.41;5035898;28;20570;-87
2022/06/18 05:52:16;;;;;;;28.88;19.00;;;;;;;22.27;55.80;101636.38;5052698;28;20278;-86
2022/06/18 05:54:42;;;;;;;29.98;18.65;;;;;;;22.31;55.92;101643.06;5035977;28;20107;-87
2022/06/18 05:57:07;;;;;;;28.65;18.90;;;;;;;22.28;55.91;101634.59;5052652;28;20489;-87
2022/06/18 05:59:33;;;;;;;29.50;18.88;;;;;;;22.40;55.17;101640.63;5036129;28;20463;-87
2022/06/18 06:01:58;;;;;;;31.52;19.55;;;;;;;22.31;55.39;101640.44;5038298;28;20035;-87
2022/06/18 06:04:24;;;;;;;30.27;20.02;;;;;;;22.26;55.91;101618.06;5040297;28;20599;-86
2022/06/18 06:06:51;;;;;;;30.50;20.10;;;;;;;22.11;55.89;101603.50;5056669;28;20025;-86
2022/06/18 06:11:28;;;;;;;31.02;19.50;;;;;;;22.38;54.60;101642.56;5056326;28;20029;-87
2022/06/18 06:12:02;;;;;;;26.75;18.60;;;;;;;22.34;55.29;101642.00;5045377;28;20085;-86
2022/06/18 06:14:28;;;;;;;31.95;19.90;;;;;;;22.44;55.43;101637.63;5040060;28;20028;-86
2022/06/18 06:16:54;;;;;;;29.17;19.60;;;;;;;22.54;54.83;101648.25;5023369;28;20124;-86
2022/06/18 06:19:19;;;;;;;31.02;19.50;;;;;;;22.48;54.01;101631.13;5039886;28;20032;-87
2022/06/18 06:21:45;;;;;;;29.85;18.52;;;;;;;22.74;54.27;101643.94;5074248;28;20481;-87
2022/06/18 06:24:10;;;;;;;34.42;19.85;;;;;;;22.88;53.58;101657.66;5055939;28;20040;-88
2022/06/18 06:26:36;;;;;;;29.90;20.17;;;;;;;22.89;53.71;101642.66;5023179;28;20024;-87
2022/06/18 06:29:02;;;;;;;30.33;19.33;;;;;;;23.03;53.18;101652.91;5039776;28;20027;-87
2022/06/18 06:31:27;;;;;;;31.58;20.35;;;;;;;23.09;52.34;101657.63;5039565;28;20390;-86
2022/06/18 06:33:53;;;;;;;28.08;20.05;;;;;;;23.09;53.50;101660.28;5039567;28;20408;-87
2022/06/18 06:36:18;;;;;;;31.05;21.35;;;;;;;23.00;53.17;101655.78;5056127;28;20024;-87
2022/06/18 06:38:44;;;;;;;35.38;21.20;;;;;;;23.00;53.87;101642.59;5022611;28;20017;-87
2022/06/18 06:41:16;;;;;;;33.03;20.75;;;;;;;23.11;53.20;101658.38;5022568;28;20036;-86
2022/06/18 06:43:41;;;;;;;32.00;20.65;;;;;;;23.13;53.16;101616.84;5039788;28;20070;-87
2022/06/18 06:46:11;;;;;;;29.73;19.55;;;;;;;23.28;52.15;101653.41;5055728;28;20040;-86
2022/06/18 06:48:36;;;;;;;30.60;20.02;;;;;;;23.21;52.94;101653.13;5039097;28;20098;-86
2022/06/18 06:51:02;;;;;;;28.70;19.27;;;;;;;23.19;52.79;101652.41;5022647;28;20033;-87
2022/06/18 06:53:27;;;;;;;31.00;18.52;;;;;;;23.16;52.06;101635.03;5022338;28;20424;-88
2022/06/18 06:58:38;;;;;;;27.08;17.13;;;;;;;23.41;51.62;101660.16;5024719;28;20060;-87
2022/06/18 07:01:04;;;;;;;25.25;16.17;;;;;;;23.50;51.04;101652.38;5038964;28;20512;-87
2022/06/18 07:03:31;;;;;;;24.40;17.00;;;;;;;23.68;51.03;101667.50;5039109;28;20497;-87
2022/06/18 07:05:58;;;;;;;24.08;16.80;;;;;;;23.79;50.62;101655.13;5039243;28;20028;-86
2022/06/18 07:08:23;;;;;;;23.67;16.08;;;;;;;23.91;50.41;101646.97;5040976;28;20029;-87
2022/06/18 07:10:50;;;;;;;24.60;16.85;;;;;;;24.08;49.98;101652.53;5055861;28;20028;-86
2022/06/18 07:13:16;;;;;;;24.90;16.92;;;;;;;24.36;50.69;101672.06;5038421;28;20021;-87
2022/06/18 07:15:42;;;;;;;26.25;16.98;;;;;;;24.33;49.62;101667.91;5038730;28;20032;-87
2022/06/18 07:18:19;;;;;;;28.40;17.33;;;;;;;24.48;48.92;101671.81;5038828;28;20021;-87
2022/06/18 07:20:44;;;;;;;24.90;17.33;;;;;;;24.30;49.51;101647.00;5022790;28;20139;-88
2022/06/18 07:23:10;;;;;;;22.83;16.55;;;;;;;24.61;49.09;101658.28;5055202;28;20040;-87
2022/06/18 07:25:36;;;;;;;22.23;16.35;;;;;;;24.73;48.65;101675.66;5054945;28;20024;-88
2022/06/18 07:28:01;;;;;;;26.40;17.52;;;;;;;24.65;48.23;101656.19;5038345;28;20489;-86
2022/06/18 07:30:26;;;;;;;26.50;16.08;;;;;;;24.87;47.76;101661.97;5038500;28;20020;-87
2022/06/18 07:32:52;;;;;;;24.20;15.23;;;;;;;25.06;47.74;101639.13;5054967;28;20093;-87
2022/06/18 07:35:22;;;;;;;23.23;15.52;;;;;;;25.26;47.27;101659.25;5038203;28;20033;-88
2022/06/18 07:37:48;;;;;;;24.33;15.75;;;;;;;25.23;46.92;101651.59;5054592;28;20025;-87
2022/06/18 07:40:14;;;;;;;26.17;15.65;;;;;;;25.12;46.61;101655.28;5038281;28;20107;-86
2022/06/18 07:42:40;;;;;;;24.73;15.55;;;;;;;25.10;47.33;101651.09;5038206;28;20027;-87
2022/06/18 07:45:13;;;;;;;21.95;15.85;;;;;;;25.36;47.50;101667.97;5037969;28;20032;-87
2022/06/18 07:47:39;;;;;;;24.38;16.35;;;;;;;25.32;46.78;101649.91;5038536;28;20131;-87
2022/06/18 07:50:05;;;;;;;26.10;16.42;;;;;;;25.48;46.69;101665.16;5037943;28;20485;-87
2022/06/18 07:52:31;;;;;;;20.88;15.48;;;;;;;25.60;46.14;101664.81;5054342;28;20047;-87
2022/06/18 07:54:56;;;;;;;21.20;16.23;;;;;;;25.46;46.27;101647.56;5037930;28;20481;-88
2022/06/18 07:57:22;;;;;;;24.70;16.67;;;;;;;25.58;46.26;101665.97;5021486;28;20028;-86
2022/06/18 07:59:47;;;;;;;23.58;16.75;;;;;;;25.58;46.35;101668.59;5037982;28;20033;-86
2022/06/18 08:02:13;;;;;;;30.15;16.75;;;;;;;25.68;46.92;101656.13;5054550;28;20024;-87
2022/06/18 08:04:38;;;;;;;24.27;17.63;;;;;;;25.71;46.66;101666.47;5037585;28;20039;-87
2022/06/18 08:07:04;;;;;;;29.00;17.25;;;;;;;25.73;46.41;101665.31;5037567;28;20441;-87
2022/06/18 08:09:29;;;;;;;25.23;16.50;;;;;;;25.89;46.84;101659.38;5037496;28;20029;-87
2022/06/18 08:11:55;;;;;;;23.27;15.95;;;;;;;26.06;45.45;101663.03;5054333;28;20081;-87
2022/06/18 08:14:20;;;;;;;23.65;15.38;;;;;;;26.20;44.58;101657.19;5037805;28;20024;-87
2022/06/18 08:16:46;;;;;;;24.73;17.15;;;;;;;26.22;45.25;101663.16;5021187;28;20033;-85
2022/06/18 08:19:12;;;;;;;26.17;17.10;;;;;;;26.20;45.16;101669.63;5054208;28;20483;-86
2022/06/18 08:21:40;;;;;;;28.50;17.02;;;;;;;26.08;45.70;101660.22;5038046;28;20055;-87
2022/06/18 08:24:09;;;;;;;22.83;16.60;;;;;;;25.91;46.04;101651.28;5037706;28;20029;-87
2022/06/18 08:26:35;;;;;;;25.58;16.85;;;;;;;26.07;45.90;101653.25;5053640;28;20398;-87
2022/06/18 08:29:01;;;;;;;24.08;16.45;;;;;;;25.99;45.51;101638.94;5053827;28;20031;-89
2022/06/18 08:31:27;;;;;;;21.65;15.93;;;;;;;26.41;45.42;101664.88;5037482;28;20105;-87
2022/06/18 08:33:53;;;;;;;21.67;15.50;;;;;;;26.49;45.33;101661.44;5037029;28;20091;-86
2022/06/18 08:36:18;;;;;;;26.42;16.58;;;;;;;26.63;44.96;101663.53;5071682;28;20040;-86
2022/06/18 08:38:45;;;;;;;26.80;16.92;;;;;;;26.65;44.29;101660.75;5036991;28;20029;-87
2022/06/18 08:41:22;;;;;;;24.55;16.25;;;;;;;26.95;44.15;101667.41;5037263;28;20035;-87
2022/06/18 08:44:06;;;;;;;24.67;15.52;;;;;;;26.69;44.64;101668.25;5071503;28;20512;-87
2022/06/18 08:46:38;;;;;;;20.45;15.73;;;;;;;26.64;44.46;101670.50;5071391;28;20022;-87
2022/06/18 08:49:22;;;;;;;21.80;16.38;;;;;;;26.58;45.13;101661.34;5052874;28;20097;-87
2022/06/18 08:52:13;;;;;;;23.02;15.57;;;;;;;26.67;44.54;101664.06;5053229;28;20036;-86
2022/06/18 08:55:10;;;;;;;22.60;14.98;;;;;;;26.74;46.00;101659.78;5067709;28;20045;-86
2022/06/18 08:57:54;;;;;;;22.27;15.23;;;;;;;26.86;44.51;101653.25;5048142;28;20040;-87
2022/06/18 09:00:22;;;;;;;19.67;15.70;;;;;;;27.03;44.53;101665.66;5053303;28;20029;-87
2022/06/18 09:02:56;;;;;;;23.55;15.75;;;;;;;27.20;44.98;101660.44;5052743;28;20025;-86
2022/06/18 09:05:40;;;;;;;21.23;16.23;;;;;;;27.17;43.71;101634.19;5071231;28;20028;-87
2022/06/18 09:08:47;;;;;;;19.42;14.27;;;;;;;27.28;43.84;101656.00;5038493;28;20040;-87
2022/06/18 09:11:21;;;;;;;20.55;15.13;;;;;;;27.18;43.31;101670.41;5062335;28;20085;-86
2022/06/18 09:14:01;;;;;;;31.45;15.98;;;;;;;27.22;43.60;101658.44;5070972;28;20028;-88
2022/06/18 09:16:40;;;;;;;23.75;14.00;;;;;;;27.12;43.25;101635.50;5054014;28;20029;-86
2022/06/18 09:19:08;;;;;;;16.55;12.68;;;;;;;27.42;42.11;101652.72;5036864;28;20401;-87
2022/06/18 09:21:33;;;;;;;18.50;13.57;;;;;;;27.57;41.61;101658.28;5036594;28;20099;-87
2022/06/18 09:24:04;;;;;;;17.63;13.30;;;;;;;27.16;41.73;101630.72;5070806;28;20493;-87
2022/06/18 09:26:43;;;;;;;16.50;13.38;;;;;;;26.98;42.71;101657.31;5053058;28;20033;-87
2022/06/18 09:29:21;;;;;;;15.93;12.45;;;;;;;26.89;42.29;101660.91;5036618;28;20041;-87
2022/06/18 09:31:51;;;;;;;16.25;12.90;;;;;;;26.86;42.50;101648.78;5052625;28;20111;-87
2022/06/18 09:34:24;;;;;;;18.40;12.82;;;;;;;27.27;42.31;101649.03;5036671;28;20509;-87
2022/06/18 09:36:54;;;;;;;16.83;13.48;;;;;;;27.44;42.14;101641.97;5052335;28;20024;-87
2022/06/18 09:39:52;;;;;;;17.02;12.60;;;;;;;27.34;42.19;101631.47;5020132;28;20104;-87
2022/06/18 09:42:27;;;;;;;18.90;12.73;;;;;;;27.27;42.30;101634.91;5054913;28;20098;-88
2022/06/18 09:45:05;;;;;;;15.32;12.60;;;;;;;27.62;42.28;101661.25;5036675;28;20024;-87
2022/06/18 09:47:59;;;;;;;16.98;12.63;;;;;;;27.89;41.24;101656.72;5052461;28;20135;-87
2022/06/18 09:50:32;;;;;;;22.60;13.05;;;;;;;28.05;40.67;101646.13;5034084;28;20475;-88
2022/06/18 09:53:03;;;;;;;16.58;12.27;;;;;;;28.32;39.77;101655.66;5036195;28;20031;-87
2022/06/18 09:55:39;;;;;;;14.07;11.23;;;;;;;28.47;40.01;101655.81;5019683;28;20024;-86
2022/06/18 09:58:07;;;;;;;13.98;11.77;;;;;;;28.53;39.25;101644.50;5035961;28;20032;-87
2022/06/18 10:00:32;;;;;;;17.65;12.25;;;;;;;28.74;39.08;101643.97;5036242;28;20119;-87
2022/06/18 10:06:52;;;;;;;17.77;11.73;;;;;;;28.99;38.49;101642.09;5035584;28;20103;-88
2022/06/18 10:08:47;;;;;;;17.85;12.10;;;;;;;29.11;37.23;101646.91;5040828;28;20044;-88
2022/06/18 10:11:13;;;;;;;14.65;11.90;;;;;;;29.08;37.84;101633.91;5035913;28;20028;-87
2022/06/18 10:13:51;;;;;;;22.08;12.02;;;;;;;29.27;37.55;101634.50;5036022;28;20420;-87
2022/06/18 10:16:27;;;;;;;49.45;14.77;;;;;;;29.35;37.69;101629.97;5035538;28;20086;-86
2022/06/18 10:19:10;;;;;;;16.95;11.57;;;;;;;29.47;37.02;101626.91;5052521;28;20562;-87
2022/06/18 10:21:46;;;;;;;15.13;11.80;;;;;;;29.35;37.65;101613.97;5020357;28;20461;-88
2022/06/18 10:24:21;;;;;;;17.90;11.52;;;;;;;29.42;36.99;101598.13;5019752;28;20024;-87
2022/06/18 10:26:52;;;;;;;21.42;11.07;;;;;;;29.71;36.31;101624.16;5052198;28;20024;-87
2022/06/18 10:29:18;;;;;;;15.68;10.82;;;;;;;29.58;36.33;101610.56;5052260;28;20028;-86
2022/06/18 10:32:05;;;;;;;14.70;11.68;;;;;;;29.66;36.43;101616.69;5051850;28;20025;-86
2022/06/18 10:34:55;;;;;;;14.23;11.15;;;;;;;29.62;36.19;101614.56;5020976;28;20489;-87
2022/06/18 10:37:42;;;;;;;15.57;10.95;;;;;;;29.72;35.88;101615.16;5069793;28;20409;-87
2022/06/18 10:40:26;;;;;;;13.10;11.48;;;;;;;29.67;35.84;101609.50;5070053;28;20056;-87
2022/06/18 10:42:51;;;;;;;15.90;11.50;;;;;;;29.38;35.56;101613.63;5070178;28;20052;-87
2022/06/18 10:45:27;;;;;;;14.95;11.20;;;;;;;29.43;36.41;101595.28;5051628;28;20071;-87
2022/06/18 10:47:52;;;;;;;13.40;11.10;;;;;;;29.67;35.07;101604.16;5052516;28;20039;-87
2022/06/18 10:50:19;;;;;;;19.02;10.68;;;;;;;29.78;36.01;101601.09;5039226;28;20499;-86
2022/06/18 10:52:56;;;;;;;17.17;11.02;;;;;;;29.90;35.07;101609.53;5039478;28;20036;-86
2022/06/18 10:55:22;;;;;;;13.40;10.60;;;;;;;29.96;34.68;101606.13;5039548;28;20024;-87
2022/06/18 10:57:48;;;;;;;15.75;10.50;;;;;;;30.01;34.14;101602.94;5039319;28;20052;-87
2022/06/18 11:00:25;;;;;;;14.60;11.32;;;;;;;30.26;34.41;101605.25;5038714;28;20081;-87
2022/06/18 11:02:56;;;;;;;12.80;10.40;;;;;;;30.34;34.28;101599.00;5039228;28;20028;-87
2022/06/18 11:05:32;;;;;;;14.52;10.45;;;;;;;30.37;34.03;101595.13;5039188;28;20024;-87
2022/06/18 11:08:00;;;;;;;15.77;10.50;;;;;;;30.21;34.01;101582.78;5039337;28;20052;-88
2022/06/18 11:10:38;;;;;;;12.18;10.48;;;;;;;30.28;34.48;101586.38;5038960;28;20028;-86
2022/06/18 11:13:06;;;;;;;12.55;10.63;;;;;;;30.02;34.53;101584.09;5055482;28;20032;-87
2022/06/18 11:15:34;;;;;;;16.20;10.95;;;;;;;30.03;35.22;101574.25;5038864;28;20033;-87
2022/06/18 11:18:02;;;;;;;15.48;10.90;;;;;;;30.31;34.15;101590.53;5039233;28;20551;-86
2022/06/18 11:20:29;;;;;;;12.52;10.27;;;;;;;30.16;33.87;101586.00;5022404;28;20024;-86
2022/06/18 11:23:03;;;;;;;13.18;10.52;;;;;;;30.29;33.98;101580.06;5039058;28;20033;-87
2022/06/18 11:25:36;;;;;;;15.55;10.43;;;;;;;30.34;33.02;101564.31;5038845;28;20112;-87
2022/06/18 11:28:14;;;;;;;13.52;10.25;;;;;;;30.43;33.22;101568.56;5055518;28;20415;-87
2022/06/18 11:30:42;;;;;;;10.02;9.02;;;;;;;30.56;33.14;101563.41;5039823;28;20122;-86